Ar Rutbah, Iraq
Current Conditions -  °F | °C
As of 4:55 PM on Sunday 23 Nov 2014 (Local Time) from KQAJ Reporting Station
Broken Clouds Broken Clouds  
Wind Chill: 25°   Ceiling: 18000
Heat Index: 25°   Visibility: 6mi
Dew Point:   Wind: 9mph
Humidity: 36%   Direction: 20°NNE
Pressure: 29.93"   Gusts: NA
Location:  33.04°N, 40.3°E
Report Text: KQAJ 231355Z 02008KT 9999 FEW100 BKN180 25/09 A2993 RMK SLP132 T02460085
Loading
Personal Weather Stations






























Interactive Weather Map New forecast layout! Learn more

10-Day Weather Forecast

Advertisements
Track Severe Weather on mobile